createdAt,value
2019-03-24T00:01:41.522Z,81.94
2019-03-24T00:04:08.757Z,82.11
2019-03-24T00:06:37.897Z,81.78
2019-03-24T00:09:06.735Z,81.83
2019-03-24T00:11:35.707Z,82.24
2019-03-24T00:14:03.480Z,82.84
2019-03-24T00:16:31.621Z,82.38
2019-03-24T00:18:59.339Z,83.04
2019-03-24T00:21:28.005Z,82.69
2019-03-24T00:23:56.039Z,83.03
2019-03-24T00:26:24.051Z,83.58
2019-03-24T00:28:52.183Z,83.76
2019-03-24T00:31:20.620Z,83.57
2019-03-24T00:33:49.548Z,84.24
2019-03-24T00:36:17.953Z,83.99
2019-03-24T00:38:46.008Z,83.18
2019-03-24T00:41:14.120Z,83.32
2019-03-24T00:43:42.455Z,83.20
2019-03-24T00:46:11.404Z,82.66
2019-03-24T00:48:40.037Z,83.24
2019-03-24T00:51:08.336Z,83.68
2019-03-24T00:53:36.484Z,83.26
2019-03-24T00:56:04.589Z,83.52
2019-03-24T00:58:32.316Z,83.76
2019-03-24T01:01:00.325Z,83.89
2019-03-24T01:03:30.940Z,83.81
2019-03-24T01:06:01.702Z,83.83
2019-03-24T01:08:29.443Z,84.35
2019-03-24T01:10:57.516Z,84.86
2019-03-24T01:13:25.999Z,85.76
2019-03-24T01:15:54.716Z,85.56
2019-03-24T01:18:23.336Z,85.13
2019-03-24T01:20:51.126Z,84.80
2019-03-24T01:23:19.267Z,84.44
2019-03-24T01:25:47.369Z,84.47
2019-03-24T01:28:17.540Z,84.70
2019-03-24T01:30:45.490Z,85.19
2019-03-24T01:33:13.518Z,85.51
2019-03-24T01:35:42.363Z,85.42
2019-03-24T01:38:10.109Z,85.62
2019-03-24T01:40:37.851Z,85.62
2019-03-24T01:43:06.018Z,86.65
2019-03-24T01:45:33.763Z,86.55
2019-03-24T01:48:01.483Z,86.78
2019-03-24T01:50:29.527Z,86.78
2019-03-24T01:52:58.019Z,87.38
2019-03-24T01:55:27.767Z,87.73
2019-03-24T01:57:56.184Z,87.37
2019-03-24T02:00:26.820Z,87.54
2019-03-24T02:02:55.884Z,87.65
2019-03-24T02:05:24.211Z,87.80
2019-03-24T02:07:52.232Z,88.00
2019-03-24T02:10:20.431Z,88.14
2019-03-24T02:12:50.275Z,88.88
2019-03-24T02:15:18.115Z,88.50
2019-03-24T02:17:45.976Z,88.06
2019-03-24T02:20:28.321Z,88.95
2019-03-24T02:22:57.207Z,89.75
2019-03-24T02:25:25.657Z,88.65
2019-03-24T02:27:54.516Z,89.22
2019-03-24T02:30:23.040Z,88.28
2019-03-24T02:32:51.038Z,88.17
2019-03-24T02:35:19.180Z,88.09
2019-03-24T02:37:47.374Z,88.64
2019-03-24T02:40:17.359Z,88.71
2019-03-24T02:42:45.908Z,88.28
2019-03-24T02:45:14.007Z,88.75
2019-03-24T02:47:42.406Z,88.45
2019-03-24T02:50:10.449Z,88.21
2019-03-24T02:52:41.976Z,87.65
2019-03-24T02:55:11.814Z,87.61
2019-03-24T02:57:42.657Z,87.31
2019-03-24T03:00:09.966Z,87.20
2019-03-24T03:02:38.271Z,87.09
2019-03-24T03:05:07.671Z,86.69
2019-03-24T03:07:36.796Z,87.43
2019-03-24T03:10:07.505Z,87.10
2019-03-24T03:12:34.548Z,87.03
2019-03-24T03:15:02.611Z,87.41
2019-03-24T03:17:30.898Z,87.67
2019-03-24T03:19:59.165Z,88.27
2019-03-24T03:22:27.561Z,88.90
2019-03-24T03:24:55.538Z,89.67
2019-03-24T03:27:24.187Z,89.89
2019-03-24T03:29:52.857Z,89.88
2019-03-24T03:32:23.294Z,89.90
2019-03-24T03:34:51.702Z,90.09
2019-03-24T03:37:19.805Z,90.04
2019-03-24T03:39:47.795Z,90.27
2019-03-24T03:42:17.172Z,91.26
2019-03-24T03:44:45.609Z,91.28
2019-03-24T03:47:13.695Z,91.30
2019-03-24T03:49:41.437Z,91.48
2019-03-24T03:52:09.367Z,91.68
2019-03-24T03:54:37.284Z,92.03
2019-03-24T03:57:06.369Z,92.11
2019-03-24T03:59:36.113Z,90.94
2019-03-24T04:02:04.188Z,89.53
2019-03-24T04:04:32.365Z,90.50
2019-03-24T04:07:00.679Z,90.93
2019-03-24T04:09:29.189Z,91.23
2019-03-24T04:11:57.309Z,91.87
2019-03-24T04:14:25.758Z,91.93
2019-03-24T04:17:06.034Z,92.34
2019-03-24T04:19:24.545Z,92.38
2019-03-24T04:21:54.155Z,92.35
2019-03-24T04:24:22.230Z,92.32
2019-03-24T04:26:50.939Z,92.46
2019-03-24T04:29:19.274Z,92.45
2019-03-24T04:31:48.177Z,92.43
2019-03-24T04:34:16.011Z,92.59
2019-03-24T04:36:44.157Z,92.60
2019-03-24T04:39:12.073Z,92.56
2019-03-24T04:41:41.015Z,92.91
2019-03-24T04:44:10.053Z,92.83
2019-03-24T04:46:37.794Z,92.64
2019-03-24T04:49:05.826Z,92.67
2019-03-24T04:51:33.863Z,92.86
2019-03-24T04:54:02.279Z,92.97
2019-03-24T04:56:31.265Z,92.83
2019-03-24T04:58:59.956Z,92.92
2019-03-24T05:01:27.665Z,92.39
2019-03-24T05:03:56.035Z,92.17
2019-03-24T05:06:24.136Z,91.87
2019-03-24T05:08:53.541Z,92.05
2019-03-24T05:11:21.721Z,92.21
2019-03-24T05:13:50.427Z,92.06
2019-03-24T05:16:19.146Z,92.07
2019-03-24T05:18:46.907Z,91.97
2019-03-24T05:21:15.028Z,91.57
2019-03-24T05:23:43.231Z,91.28
2019-03-24T05:26:11.879Z,90.94
2019-03-24T05:28:39.660Z,90.39
2019-03-24T05:31:07.723Z,90.08
2019-03-24T05:33:35.518Z,89.23
2019-03-24T05:36:03.546Z,88.75
2019-03-24T05:38:31.958Z,88.09
2019-03-24T05:40:59.853Z,88.34
2019-03-24T05:43:28.311Z,88.76
2019-03-24T05:45:56.297Z,88.82
2019-03-24T05:48:25.250Z,88.60
2019-03-24T05:50:53.414Z,88.25
2019-03-24T05:53:22.532Z,87.92
2019-03-24T05:55:50.315Z,87.54
2019-03-24T05:58:18.740Z,87.18
2019-03-24T06:00:46.768Z,86.94
2019-03-24T06:03:15.607Z,86.48
2019-03-24T06:05:45.885Z,85.99
2019-03-24T06:08:13.943Z,85.24
2019-03-24T06:10:43.140Z,84.72
2019-03-24T06:13:12.943Z,84.00
2019-03-24T06:15:40.985Z,83.37
2019-03-24T06:18:09.095Z,83.28
2019-03-24T06:20:37.000Z,82.32
2019-03-24T06:23:05.573Z,81.58
2019-03-24T06:25:35.030Z,82.35
2019-03-24T06:28:04.152Z,82.68
2019-03-24T06:30:32.980Z,81.67
2019-03-24T06:33:00.751Z,81.54
2019-03-24T06:35:29.379Z,81.16
2019-03-24T06:37:57.735Z,81.18
2019-03-24T06:40:26.079Z,80.63
2019-03-24T06:42:55.496Z,80.11
2019-03-24T06:45:28.534Z,79.63
2019-03-24T06:47:58.110Z,79.13
2019-03-24T06:50:26.613Z,78.68
2019-03-24T06:52:54.493Z,78.29
2019-03-24T06:55:22.506Z,77.87
2019-03-24T06:57:50.305Z,77.01
2019-03-24T07:00:18.347Z,76.38
2019-03-24T07:02:46.580Z,75.79
2019-03-24T07:05:16.602Z,75.96
2019-03-24T07:07:45.504Z,75.91
2019-03-24T07:10:13.501Z,75.18
2019-03-24T07:12:41.864Z,74.31
2019-03-24T07:15:10.477Z,75.00
2019-03-24T07:17:38.267Z,73.89
2019-03-24T07:20:07.481Z,74.36
2019-03-24T07:22:35.521Z,73.08
2019-03-24T07:25:07.680Z,72.03
2019-03-24T07:27:35.870Z,72.56
2019-03-24T07:30:04.808Z,71.54
2019-03-24T07:32:33.699Z,71.54
2019-03-24T07:35:02.047Z,71.36
2019-03-24T07:37:30.993Z,71.36
2019-03-24T07:39:58.932Z,70.74
2019-03-24T07:42:28.948Z,70.15
2019-03-24T07:44:56.938Z,69.57
2019-03-24T07:47:24.937Z,70.43
2019-03-24T07:49:52.869Z,69.66
2019-03-24T07:52:21.826Z,69.61
2019-03-24T07:54:50.269Z,68.62
2019-03-24T07:57:18.142Z,68.13
2019-03-24T07:59:46.584Z,68.30
2019-03-24T08:02:14.607Z,67.01
2019-03-24T08:04:45.174Z,67.22
2019-03-24T08:07:13.293Z,66.67
2019-03-24T08:09:41.017Z,65.78
2019-03-24T08:12:12.247Z,65.33
2019-03-24T08:14:41.190Z,65.58
2019-03-24T08:17:09.648Z,64.44
2019-03-24T08:19:37.951Z,64.99
2019-03-24T08:22:06.550Z,64.79
2019-03-24T08:24:34.722Z,65.23
2019-03-24T08:27:02.557Z,63.06
2019-03-24T08:29:31.070Z,62.28
2019-03-24T08:31:59.893Z,61.98
2019-03-24T08:34:28.179Z,60.98
2019-03-24T08:36:56.077Z,60.14
2019-03-24T08:39:24.519Z,60.32
2019-03-24T08:41:52.707Z,60.38
2019-03-24T08:44:21.323Z,59.24
2019-03-24T08:46:49.892Z,58.87
2019-03-24T08:49:21.130Z,59.29
2019-03-24T08:51:51.487Z,59.69
2019-03-24T08:54:21.260Z,57.69
2019-03-24T08:56:51.483Z,57.62
2019-03-24T08:59:19.544Z,56.34
2019-03-24T09:01:48.573Z,57.36
2019-03-24T09:04:17.021Z,56.77
2019-03-24T09:06:45.219Z,57.80
2019-03-24T09:09:13.301Z,55.55
2019-03-24T09:11:41.393Z,57.00
2019-03-24T09:14:09.690Z,54.54
2019-03-24T09:16:37.742Z,56.43
2019-03-24T09:19:05.651Z,54.53
2019-03-24T09:21:36.325Z,53.48
2019-03-24T09:24:03.742Z,53.83
2019-03-24T09:26:31.894Z,54.02
2019-03-24T09:29:00.026Z,55.17
2019-03-24T09:31:28.672Z,53.24
2019-03-24T09:33:56.820Z,52.78
2019-03-24T09:36:25.812Z,53.34
2019-03-24T09:38:54.625Z,52.27
2019-03-24T09:41:23.098Z,52.52
2019-03-24T09:43:51.347Z,53.18
2019-03-24T09:46:19.447Z,52.70
2019-03-24T09:48:48.133Z,53.04
2019-03-24T09:51:16.840Z,53.05
2019-03-24T09:53:47.043Z,51.58
2019-03-24T09:56:16.456Z,51.68
2019-03-24T09:58:44.360Z,51.33
2019-03-24T10:01:12.478Z,51.10
2019-03-24T10:03:40.639Z,50.78
2019-03-24T10:06:08.404Z,50.38
2019-03-24T10:08:46.811Z,50.21
2019-03-24T10:11:06.744Z,50.13
2019-03-24T10:13:43.253Z,51.00
2019-03-24T10:16:11.696Z,49.07
2019-03-24T10:18:40.350Z,47.06
2019-03-24T10:21:10.179Z,49.01
2019-03-24T10:23:38.464Z,48.97
2019-03-24T10:26:07.583Z,49.14
2019-03-24T10:28:36.345Z,49.52
2019-03-24T10:31:04.812Z,50.56
2019-03-24T10:33:33.332Z,49.26
2019-03-24T10:36:01.349Z,48.54
2019-03-24T10:38:29.853Z,46.62
2019-03-24T10:40:58.198Z,46.26
2019-03-24T10:43:27.217Z,46.13
2019-03-24T10:45:55.978Z,44.69
2019-03-24T10:48:33.386Z,45.31
2019-03-24T10:50:54.789Z,44.50
2019-03-24T10:53:23.630Z,44.65
2019-03-24T10:55:51.552Z,45.14
2019-03-24T10:58:19.647Z,44.29
2019-03-24T11:00:48.048Z,44.37
2019-03-24T11:03:16.123Z,43.20
2019-03-24T11:05:43.976Z,44.26
2019-03-24T11:08:12.937Z,45.58
2019-03-24T11:10:40.760Z,46.40
2019-03-24T11:13:08.789Z,42.92
2019-03-24T11:15:36.889Z,43.31
2019-03-24T11:18:06.072Z,42.10
2019-03-24T11:20:35.234Z,40.67
2019-03-24T11:23:03.134Z,42.66
2019-03-24T11:25:31.883Z,41.45
2019-03-24T11:28:00.008Z,42.22
2019-03-24T11:30:30.332Z,41.75
2019-03-24T11:32:59.547Z,41.52
2019-03-24T11:35:27.675Z,40.99
2019-03-24T11:37:56.172Z,41.61
2019-03-24T11:40:24.394Z,41.15
2019-03-24T11:42:55.291Z,39.33
2019-03-24T11:45:24.106Z,39.90
2019-03-24T11:47:52.146Z,38.10
2019-03-24T11:50:20.622Z,39.85
2019-03-24T11:52:48.688Z,41.34
2019-03-24T11:55:17.271Z,39.01
2019-03-24T11:57:45.447Z,38.19
2019-03-24T12:00:13.464Z,39.82
2019-03-24T12:02:41.442Z,40.08
2019-03-24T12:05:09.683Z,38.96
2019-03-24T12:07:37.465Z,35.47
2019-03-24T12:10:06.756Z,35.83
2019-03-24T12:12:35.113Z,37.77
2019-03-24T12:15:05.590Z,38.18
2019-03-24T12:17:34.140Z,38.39
2019-03-24T12:20:02.451Z,37.19
2019-03-24T12:22:30.567Z,38.11
2019-03-24T12:24:58.523Z,36.71
2019-03-24T12:27:26.871Z,35.74
2019-03-24T12:29:55.004Z,36.47
2019-03-24T12:32:23.210Z,37.63
2019-03-24T12:34:51.408Z,36.44
2019-03-24T12:37:19.432Z,37.20
2019-03-24T12:39:47.877Z,36.29
2019-03-24T12:42:16.608Z,36.68
2019-03-24T12:44:45.567Z,35.32
2019-03-24T12:47:13.898Z,35.89
2019-03-24T12:49:51.499Z,34.80
2019-03-24T12:52:20.054Z,36.24
2019-03-24T12:54:48.408Z,35.56
2019-03-24T12:57:18.390Z,35.36
2019-03-24T12:59:47.177Z,36.15
2019-03-24T13:02:15.217Z,34.67
2019-03-24T13:04:42.984Z,35.47
2019-03-24T13:07:11.100Z,34.32
2019-03-24T13:09:39.167Z,34.28
2019-03-24T13:12:07.616Z,34.04
2019-03-24T13:14:35.834Z,34.55
2019-03-24T13:17:04.314Z,32.55
2019-03-24T13:19:35.882Z,32.86
2019-03-24T13:22:02.884Z,33.08
2019-03-24T13:24:30.928Z,31.77
2019-03-24T13:26:59.084Z,32.28
2019-03-24T13:29:27.287Z,34.53
2019-03-24T13:31:57.395Z,33.41
2019-03-24T13:34:28.959Z,34.75
2019-03-24T13:36:57.060Z,33.72
2019-03-24T13:39:24.824Z,33.07
2019-03-24T13:41:53.378Z,32.98
2019-03-24T13:44:21.839Z,33.57
2019-03-24T13:46:49.941Z,33.91
2019-03-24T13:49:18.004Z,33.68
2019-03-24T13:51:46.217Z,33.12
2019-03-24T13:54:15.334Z,34.60
2019-03-24T13:56:43.375Z,34.92
2019-03-24T13:59:11.103Z,33.83
2019-03-24T14:01:40.115Z,34.27
2019-03-24T14:04:08.808Z,34.28
2019-03-24T14:06:37.444Z,34.02
2019-03-24T14:09:08.090Z,34.42
2019-03-24T14:11:38.096Z,34.82
2019-03-24T14:14:07.860Z,33.65
2019-03-24T14:16:37.284Z,34.62
2019-03-24T14:19:05.288Z,34.40
2019-03-24T14:21:33.376Z,35.49
2019-03-24T14:24:01.323Z,34.93
2019-03-24T14:26:29.104Z,35.09
2019-03-24T14:28:57.565Z,35.35
2019-03-24T14:31:26.734Z,35.00
2019-03-24T14:33:54.796Z,35.64
2019-03-24T14:36:23.233Z,35.47
2019-03-24T14:38:51.388Z,35.13
2019-03-24T14:41:20.117Z,35.53
2019-03-24T14:43:48.255Z,35.47
2019-03-24T14:46:16.374Z,36.48
2019-03-24T14:48:45.199Z,36.09
2019-03-24T14:51:14.155Z,36.24
2019-03-24T14:53:42.168Z,35.46
2019-03-24T14:56:12.509Z,35.44
2019-03-24T14:58:40.830Z,35.67
2019-03-24T15:01:08.602Z,34.95
2019-03-24T15:03:37.946Z,35.73
2019-03-24T15:06:06.540Z,35.66
2019-03-24T15:08:35.917Z,36.10
2019-03-24T15:11:05.364Z,35.16
2019-03-24T15:13:34.564Z,36.06
2019-03-24T15:16:04.523Z,36.01
2019-03-24T15:18:32.715Z,35.77
2019-03-24T15:21:05.499Z,35.87
2019-03-24T15:23:31.354Z,35.40
2019-03-24T15:26:11.998Z,36.52
2019-03-24T15:28:39.366Z,36.03
2019-03-24T15:31:07.631Z,36.18
2019-03-24T15:33:35.400Z,36.10
2019-03-24T15:36:03.775Z,35.92
2019-03-24T15:38:32.532Z,36.18
2019-03-24T15:41:00.744Z,36.11
2019-03-24T15:43:28.802Z,36.04
2019-03-24T15:45:57.522Z,36.35
2019-03-24T15:48:25.546Z,36.29
2019-03-24T15:50:54.076Z,36.33
2019-03-24T15:53:22.206Z,36.78
2019-03-24T15:55:51.354Z,36.30
2019-03-24T15:58:19.370Z,36.19
2019-03-24T16:00:48.357Z,36.02
2019-03-24T16:03:16.843Z,35.61
2019-03-24T16:05:44.569Z,37.09
2019-03-24T16:08:12.915Z,36.35
2019-03-24T16:10:42.146Z,36.66
2019-03-24T16:13:11.700Z,37.33
2019-03-24T16:15:40.673Z,37.63
2019-03-24T16:18:09.426Z,37.89
2019-03-24T16:20:38.127Z,37.25
2019-03-24T16:23:07.284Z,37.73
2019-03-24T16:25:35.317Z,37.73
2019-03-24T16:28:06.426Z,38.18
2019-03-24T16:30:35.183Z,38.38
2019-03-24T16:33:03.003Z,38.46
2019-03-24T16:35:31.197Z,39.16
2019-03-24T16:37:59.293Z,40.19
2019-03-24T16:40:27.648Z,39.86
2019-03-24T16:42:56.612Z,39.72
2019-03-24T16:45:24.690Z,40.32
2019-03-24T16:47:52.617Z,40.70
2019-03-24T16:50:20.666Z,41.02
2019-03-24T16:52:49.149Z,41.49
2019-03-24T16:55:17.790Z,41.53
2019-03-24T16:57:46.666Z,41.68
2019-03-24T17:00:14.711Z,42.29
2019-03-24T17:02:42.541Z,42.91
2019-03-24T17:05:10.564Z,43.56
2019-03-24T17:07:38.585Z,44.45
2019-03-24T17:10:08.305Z,45.05
2019-03-24T17:12:36.575Z,45.08
2019-03-24T17:15:05.017Z,44.54
2019-03-24T17:17:33.896Z,45.32
2019-03-24T17:20:03.261Z,44.98
2019-03-24T17:22:31.781Z,45.45
2019-03-24T17:25:00.400Z,45.66
2019-03-24T17:27:28.691Z,45.40
2019-03-24T17:29:56.931Z,45.60
2019-03-24T17:32:25.154Z,45.72
2019-03-24T17:34:53.181Z,46.21
2019-03-24T17:37:21.720Z,46.41
2019-03-24T17:39:50.229Z,46.36
2019-03-24T17:42:17.995Z,46.63
2019-03-24T17:44:46.596Z,46.75
2019-03-24T17:47:16.348Z,48.27
2019-03-24T17:49:45.561Z,50.06
2019-03-24T17:52:13.793Z,51.15
2019-03-24T17:54:41.959Z,51.92
2019-03-24T17:57:10.198Z,52.30
2019-03-24T17:59:38.303Z,52.63
2019-03-24T18:02:14.158Z,52.87
2019-03-24T18:04:36.610Z,53.62
2019-03-24T18:07:06.425Z,54.23
2019-03-24T18:09:34.561Z,55.58
2019-03-24T18:12:05.019Z,56.34
2019-03-24T18:14:33.483Z,57.36
2019-03-24T18:17:01.370Z,58.10
2019-03-24T18:19:29.708Z,58.89
2019-03-24T18:21:59.049Z,59.16
2019-03-24T18:24:27.443Z,59.16
2019-03-24T18:26:56.390Z,59.92
2019-03-24T18:29:27.784Z,60.45
2019-03-24T18:31:55.536Z,60.61
2019-03-24T18:34:24.462Z,60.95
2019-03-24T18:36:52.659Z,61.04
2019-03-24T18:39:21.430Z,61.32
2019-03-24T18:41:49.840Z,61.86
2019-03-24T18:44:19.185Z,61.32
2019-03-24T18:46:46.970Z,61.71
2019-03-24T18:49:15.503Z,61.34
2019-03-24T18:51:44.397Z,60.66
2019-03-24T18:54:12.569Z,60.61
2019-03-24T18:56:40.797Z,61.04
2019-03-24T18:59:09.148Z,61.09
2019-03-24T19:01:37.108Z,61.33
2019-03-24T19:04:05.170Z,60.48
2019-03-24T19:06:35.196Z,60.43
2019-03-24T19:09:05.535Z,59.43
2019-03-24T19:11:34.252Z,59.81
2019-03-24T19:14:06.814Z,60.40
2019-03-24T19:16:35.603Z,60.26
2019-03-24T19:19:04.235Z,60.09
2019-03-24T19:21:32.303Z,60.59
2019-03-24T19:24:00.803Z,60.50
2019-03-24T19:26:29.254Z,60.33
2019-03-24T19:28:59.091Z,60.97
2019-03-24T19:31:27.906Z,60.80
2019-03-24T19:33:56.050Z,61.35
2019-03-24T19:36:24.738Z,61.49
2019-03-24T19:38:54.560Z,60.66
2019-03-24T19:41:22.748Z,60.76
2019-03-24T19:43:51.187Z,61.13
2019-03-24T19:46:21.103Z,61.41
2019-03-24T19:48:49.287Z,61.54
2019-03-24T19:51:17.471Z,61.84
2019-03-24T19:53:45.698Z,62.67
2019-03-24T19:56:14.216Z,62.57
2019-03-24T19:58:42.558Z,63.12
2019-03-24T20:01:11.388Z,63.67
2019-03-24T20:03:40.367Z,64.42
2019-03-24T20:06:08.941Z,64.54
2019-03-24T20:08:37.069Z,65.29
2019-03-24T20:11:05.079Z,65.88
2019-03-24T20:13:32.967Z,66.49
2019-03-24T20:16:01.974Z,66.67
2019-03-24T20:18:30.730Z,66.63
2019-03-24T20:20:58.814Z,66.85
2019-03-24T20:23:27.273Z,67.68
2019-03-24T20:25:55.314Z,68.01
2019-03-24T20:28:24.409Z,68.34
2019-03-24T20:30:52.631Z,68.60
2019-03-24T20:33:20.856Z,68.41
2019-03-24T20:35:49.543Z,68.54
2019-03-24T20:38:17.628Z,68.59
2019-03-24T20:40:45.742Z,68.48
2019-03-24T20:43:15.563Z,68.43
2019-03-24T20:45:44.857Z,68.56
2019-03-24T20:48:14.185Z,68.91
2019-03-24T20:50:44.355Z,69.29
2019-03-24T20:53:18.320Z,69.89
2019-03-24T20:55:45.129Z,70.17
2019-03-24T20:58:14.789Z,70.32
2019-03-24T21:00:42.881Z,70.55
2019-03-24T21:03:10.957Z,71.55
2019-03-24T21:05:40.481Z,71.53
2019-03-24T21:08:09.952Z,71.42
2019-03-24T21:10:37.786Z,72.18
2019-03-24T21:13:06.540Z,72.54
2019-03-24T21:15:34.708Z,73.22
2019-03-24T21:18:04.228Z,73.90
2019-03-24T21:20:32.444Z,74.26
2019-03-24T21:23:00.431Z,74.75
2019-03-24T21:25:29.044Z,74.54
2019-03-24T21:27:58.203Z,74.78
2019-03-24T21:30:37.120Z,75.76
2019-03-24T21:33:05.431Z,75.17
2019-03-24T21:35:33.907Z,76.34
2019-03-24T21:38:05.092Z,76.30
2019-03-24T21:40:33.235Z,77.25
2019-03-24T21:43:01.295Z,77.18
2019-03-24T21:45:30.547Z,77.25
2019-03-24T21:47:58.813Z,77.86
2019-03-24T21:50:26.837Z,78.16
2019-03-24T21:52:55.261Z,77.96
2019-03-24T21:55:23.614Z,78.47
2019-03-24T21:57:57.362Z,78.49
2019-03-24T22:00:31.407Z,78.78
2019-03-24T22:02:59.455Z,79.39
2019-03-24T22:05:27.808Z,79.39
2019-03-24T22:07:55.811Z,79.76
2019-03-24T22:10:23.903Z,80.21
2019-03-24T22:12:52.979Z,79.78
2019-03-24T22:15:21.143Z,80.04
2019-03-24T22:17:49.536Z,80.26
2019-03-24T22:20:17.642Z,80.52
2019-03-24T22:22:47.106Z,80.95
2019-03-24T22:25:15.343Z,80.53
2019-03-24T22:27:44.218Z,80.67
2019-03-24T22:30:12.718Z,79.96
2019-03-24T22:32:40.897Z,80.19
2019-03-24T22:35:09.044Z,80.64
2019-03-24T22:37:37.471Z,80.80
2019-03-24T22:40:07.085Z,80.62
2019-03-24T22:42:34.801Z,80.60
2019-03-24T22:45:03.073Z,80.25
2019-03-24T22:47:31.012Z,80.14
2019-03-24T22:49:59.706Z,80.04
2019-03-24T22:52:27.456Z,80.36
2019-03-24T22:54:56.167Z,80.66
2019-03-24T22:57:25.211Z,80.96
2019-03-24T22:59:53.225Z,81.55
2019-03-24T23:02:22.339Z,81.50
2019-03-24T23:04:50.673Z,81.75
2019-03-24T23:07:19.120Z,81.62
2019-03-24T23:09:47.134Z,81.58
2019-03-24T23:12:15.630Z,81.51
2019-03-24T23:14:46.358Z,81.17
2019-03-24T23:17:17.520Z,80.98
2019-03-24T23:19:47.095Z,81.29
2019-03-24T23:22:15.411Z,81.46
2019-03-24T23:24:43.452Z,81.27
2019-03-24T23:27:12.384Z,81.31
2019-03-24T23:29:40.724Z,81.38
2019-03-24T23:32:10.933Z,81.36
2019-03-24T23:34:39.093Z,81.54
2019-03-24T23:37:07.384Z,81.23
2019-03-24T23:39:35.436Z,81.34
2019-03-24T23:42:03.843Z,81.15
2019-03-24T23:44:31.978Z,80.97
2019-03-24T23:47:00.011Z,80.84
2019-03-24T23:49:27.921Z,80.90
2019-03-24T23:51:56.558Z,81.13
2019-03-24T23:54:27.244Z,81.15
2019-03-24T23:56:54.213Z,81.32
2019-03-24T23:59:22.344Z,81.04
